Algodones, New Mexico
Current Conditions -  °F | °C
As of 3:52 PM on Friday 31 Oct 2014 (Local Time) from KABQ Reporting Station
Scattered Clouds Scattered Clouds  
Wind Chill: 69°   Ceiling: Unl
Heat Index: 69°   Visibility: 10mi
Dew Point: 31°   Wind: 8mph
Humidity: 24%   Direction: 150°SSE
Pressure: 30.23"   Gusts: NA
Location:  35.38°N, 106.48°W
Report Text: KABQ 312152Z 15007KT 10SM FEW080 SCT200 21/M01 A3023 RMK AO2 SLP178 T02061006
Loading
Personal Weather Stations






























Interactive Weather Map
Tropical Storm Tracking
New forecast layout! Learn more

10-Day Weather Forecast

Advertisements
Track Severe Weather on mobile